Time;durP1;ratioP1;P1;durP2;ratioP2;P2;SDS_P1;SDS_P2;PMS_P1;PMS_P2;Temp;Humidity;BMP_temperature;BMP_pressure;BME280_temperature;BME280_humidity;BME280_pressure;Samples;Min_cycle;Max_cycle;Signal;HPM_P1;HPM_P2
2022/05/16 00:00:57;;;;;;;11.30;4.10;;;;;;;17.45;52.15;101241.56;5082406;28;20084;-89
2022/05/16 00:03:24;;;;;;;10.68;4.13;;;;;;;17.39;52.17;101233.34;5099587;28;20354;-89
2022/05/16 00:05:50;;;;;;;11.27;4.25;;;;;;;17.35;52.64;101238.13;5081365;28;20024;-89
2022/05/16 00:08:15;;;;;;;14.13;4.15;;;;;;;17.31;52.81;101241.22;5085524;28;20030;-89
2022/05/16 00:10:41;;;;;;;12.73;4.47;;;;;;;17.26;53.25;101236.34;5103121;28;20476;-89
2022/05/16 00:13:06;;;;;;;11.98;3.90;;;;;;;17.22;53.07;101242.94;5084185;28;20568;-89
2022/05/16 00:15:32;;;;;;;8.95;4.13;;;;;;;17.21;53.19;101235.94;5077664;28;20031;-89
2022/05/16 00:17:57;;;;;;;14.23;4.70;;;;;;;17.15;53.39;101231.19;5096756;28;20096;-90
2022/05/16 00:20:22;;;;;;;11.68;4.13;;;;;;;17.09;53.70;101232.63;5100341;28;20395;-90
2022/05/16 00:22:48;;;;;;;14.00;4.55;;;;;;;17.09;53.74;101229.13;5082744;28;20027;-89
2022/05/16 00:25:17;;;;;;;12.20;3.97;;;;;;;17.04;53.96;101218.09;5091309;28;20439;-89
2022/05/16 00:27:43;;;;;;;10.52;4.10;;;;;;;16.98;54.24;101216.88;5085069;28;20460;-89
2022/05/16 00:30:13;;;;;;;14.95;4.75;;;;;;;16.98;54.30;101219.53;5103138;28;20043;-90
2022/05/16 00:32:38;;;;;;;10.73;4.25;;;;;;;16.95;54.42;101226.97;5084884;28;20119;-90
2022/05/16 00:35:06;;;;;;;11.00;4.20;;;;;;;16.90;54.60;101222.91;5083779;28;20472;-89
2022/05/16 00:37:31;;;;;;;10.38;4.30;;;;;;;16.90;54.59;101219.41;5085164;28;20386;-89
2022/05/16 00:39:57;;;;;;;12.23;4.55;;;;;;;16.85;54.88;101209.22;5101381;28;20060;-89
2022/05/16 00:42:22;;;;;;;12.50;4.53;;;;;;;16.83;54.74;101216.50;5080422;28;20477;-89
2022/05/16 00:44:47;;;;;;;16.33;4.40;;;;;;;16.79;54.96;101225.72;5099612;28;20400;-89
2022/05/16 00:47:13;;;;;;;12.88;5.22;;;;;;;16.75;55.27;101219.03;5083255;28;20035;-90
2022/05/16 00:49:48;;;;;;;10.98;4.60;;;;;;;16.71;55.38;101222.97;5100086;28;20034;-89
2022/05/16 00:52:44;;;;;;;12.90;4.82;;;;;;;16.67;55.26;101218.91;5080806;28;20031;-90
2022/05/16 00:55:16;;;;;;;11.38;4.38;;;;;;;16.61;55.63;101212.31;5097618;28;20031;-90
2022/05/16 00:57:45;;;;;;;7.65;4.00;;;;;;;16.58;55.84;101222.41;5097019;28;20085;-90
2022/05/16 01:00:27;;;;;;;12.05;4.38;;;;;;;16.54;55.63;101208.56;5100316;28;20019;-90
2022/05/16 01:05:57;;;;;;;13.45;4.57;;;;;;;16.44;56.53;101194.47;5097984;28;20035;-90
2022/05/16 01:08:25;;;;;;;12.27;4.88;;;;;;;16.42;56.48;101195.59;5087063;28;20283;-90
2022/05/16 01:10:54;;;;;;;8.25;4.38;;;;;;;16.39;56.82;101198.53;5085558;28;20429;-90
2022/05/16 01:13:26;;;;;;;13.25;4.53;;;;;;;16.40;56.47;101201.03;5106659;28;20105;-90
2022/05/16 01:15:51;;;;;;;15.68;4.72;;;;;;;16.37;56.79;101198.66;5103601;28;20020;-90
2022/05/16 01:18:22;;;;;;;14.90;4.97;;;;;;;16.36;56.90;101210.25;5099473;28;20491;-90
2022/05/16 01:21:06;;;;;;;11.48;4.80;;;;;;;16.35;56.60;101215.72;5083375;28;20467;-90
2022/05/16 01:23:40;;;;;;;11.73;4.63;;;;;;;16.33;57.24;101212.38;5080558;28;20066;-90
2022/05/16 01:26:12;;;;;;;11.25;4.47;;;;;;;16.29;57.05;101217.97;5083732;28;20065;-90
2022/05/16 01:28:38;;;;;;;;;;;;;;;16.37;55.16;101219.06;5102631;28;20134;-90
2022/05/16 01:31:07;;;;;;;14.50;4.60;;;;;;;16.23;57.57;101213.22;5108607;28;19912;-91
2022/05/16 01:33:32;;;;;;;9.15;4.55;;;;;;;16.20;57.93;101212.66;5083760;28;20464;-90
2022/05/16 01:35:57;;;;;;;12.05;4.88;;;;;;;16.15;57.96;101204.28;5083060;28;20103;-90
2022/05/16 01:38:28;;;;;;;12.55;4.90;;;;;;;16.15;58.29;101204.28;5083209;28;20088;-90
2022/05/16 01:41:05;;;;;;;10.02;4.75;;;;;;;16.15;57.87;101205.13;5101746;28;20425;-90
2022/05/16 01:43:34;;;;;;;11.95;4.80;;;;;;;16.13;58.36;101204.44;5082520;28;20099;-90
2022/05/16 01:45:59;;;;;;;12.75;4.70;;;;;;;16.13;58.48;101200.94;5096179;28;20313;-89
2022/05/16 01:48:29;;;;;;;9.57;4.50;;;;;;;16.12;58.55;101189.50;5095233;28;20027;-89
2022/05/16 01:51:00;;;;;;;10.90;4.55;;;;;;;16.13;58.75;101196.47;5080828;28;20032;-89
2022/05/16 01:53:26;;;;;;;9.90;4.60;;;;;;;16.15;58.66;101194.50;5098155;28;20082;-89
2022/05/16 01:55:51;;;;;;;10.70;5.05;;;;;;;16.24;58.02;101183.03;5100839;28;20436;-89
2022/05/16 01:58:16;;;;;;;13.20;4.80;;;;;;;16.28;57.99;101183.59;5101685;28;20032;-89
2022/05/16 02:00:42;;;;;;;9.27;4.50;;;;;;;16.32;58.02;101181.47;5099067;28;20063;-89
2022/05/16 02:03:07;;;;;;;9.95;4.63;;;;;;;16.35;57.83;101179.38;5079455;28;20491;-89
2022/05/16 02:05:34;;;;;;;9.82;5.07;;;;;;;16.38;58.10;101186.22;5106244;28;20082;-89
2022/05/16 02:08:00;;;;;;;10.48;4.82;;;;;;;16.38;58.08;101173.78;5100611;28;20475;-90
2022/05/16 02:10:26;;;;;;;9.13;4.45;;;;;;;16.41;57.85;101184.16;5101247;28;20483;-90
2022/05/16 02:12:52;;;;;;;11.50;4.70;;;;;;;16.44;57.85;101175.06;5099939;28;20038;-90
2022/05/16 02:15:21;;;;;;;11.00;4.57;;;;;;;16.43;57.94;101170.72;5081902;28;20061;-90
2022/05/16 02:17:46;;;;;;;12.55;4.82;;;;;;;16.43;58.18;101168.91;5082139;28;20032;-90
2022/05/16 02:20:13;;;;;;;10.10;5.05;;;;;;;16.42;57.88;101167.22;5083291;28;20069;-90
2022/05/16 02:25:22;;;;;;;11.15;4.40;;;;;;;16.40;58.28;101163.00;5100493;28;20085;-90
2022/05/16 02:27:51;;;;;;;14.00;4.50;;;;;;;16.41;58.29;101159.38;5101729;28;20382;-90
2022/05/16 02:30:18;;;;;;;12.55;4.40;;;;;;;16.40;58.36;101165.66;5101767;28;20101;-89
2022/05/16 02:32:43;;;;;;;10.80;4.80;;;;;;;16.39;58.67;101156.03;5101406;28;20024;-90
2022/05/16 02:35:10;;;;;;;12.25;4.75;;;;;;;16.40;58.40;101152.38;5104744;28;20501;-89
2022/05/16 02:37:36;;;;;;;10.13;5.20;;;;;;;16.40;58.56;101155.03;5102664;28;20023;-90
2022/05/16 02:40:01;;;;;;;9.40;4.32;;;;;;;16.39;58.48;101150.72;5103443;28;20031;-89
2022/05/16 02:42:27;;;;;;;16.98;4.68;;;;;;;16.38;58.55;101146.38;5080143;28;20032;-90
2022/05/16 02:44:52;;;;;;;9.93;4.55;;;;;;;16.39;58.66;101142.75;5101908;28;20446;-90
2022/05/16 02:47:20;;;;;;;16.42;4.60;;;;;;;16.37;58.78;101145.53;5099546;28;20024;-90
2022/05/16 02:49:46;;;;;;;9.07;4.50;;;;;;;16.37;58.57;101140.22;5086137;28;20019;-90
2022/05/16 02:52:12;;;;;;;10.82;4.55;;;;;;;16.39;58.62;101137.44;5104851;28;20028;-90
2022/05/16 02:54:38;;;;;;;10.10;4.30;;;;;;;16.35;58.71;101141.38;5081947;28;20043;-90
2022/05/16 02:57:07;;;;;;;12.80;4.40;;;;;;;16.35;58.40;101138.72;5102185;28;20390;-90
2022/05/16 02:59:34;;;;;;;7.88;4.20;;;;;;;16.34;58.99;101129.06;5090156;28;20027;-90
2022/05/16 03:02:00;;;;;;;8.20;4.03;;;;;;;16.31;58.98;101130.19;5095406;28;20950;-90
2022/05/16 03:04:25;;;;;;;9.55;3.90;;;;;;;16.30;59.00;101118.72;5086456;28;20027;-90
2022/05/16 03:06:50;;;;;;;11.48;4.82;;;;;;;16.29;59.18;101125.03;5084886;28;20019;-90
2022/05/16 03:09:19;;;;;;;10.18;4.30;;;;;;;16.27;58.95;101121.69;5106833;28;20084;-89
2022/05/16 03:11:45;;;;;;;9.57;4.25;;;;;;;16.25;59.14;101118.34;5110883;28;20360;-90
2022/05/16 03:14:11;;;;;;;8.90;4.15;;;;;;;16.24;59.10;101121.97;5082357;28;20032;-90
2022/05/16 03:16:37;;;;;;;7.28;4.28;;;;;;;16.25;59.35;101128.13;5089622;28;20020;-90
2022/05/16 03:19:05;;;;;;;12.30;4.47;;;;;;;16.22;59.18;101126.59;5077970;28;20558;-90
2022/05/16 03:21:31;;;;;;;15.45;4.50;;;;;;;16.25;58.97;101126.28;5085636;28;20439;-90
2022/05/16 03:23:57;;;;;;;9.20;3.95;;;;;;;16.23;59.35;101127.41;5103406;28;20149;-90
2022/05/16 03:26:23;;;;;;;10.52;3.85;;;;;;;16.21;60.46;101124.06;5095228;28;20334;-89
2022/05/16 03:28:49;;;;;;;10.25;4.45;;;;;;;16.15;60.74;101127.31;5103604;28;20024;-89
2022/05/16 03:31:14;;;;;;;9.70;4.47;;;;;;;16.12;60.41;101128.44;5090683;28;20070;-89
2022/05/16 03:33:42;;;;;;;9.98;4.15;;;;;;;16.10;60.25;101132.22;5079179;28;20034;-90
2022/05/16 03:36:08;;;;;;;9.50;4.50;;;;;;;16.07;60.54;101127.19;5109662;28;20083;-89
2022/05/16 03:41:17;;;;;;;9.05;4.22;;;;;;;16.01;60.70;101120.63;5107075;28;20104;-89
2022/05/16 03:43:43;;;;;;;7.63;4.07;;;;;;;16.00;60.89;101126.88;5109049;28;20110;-89
2022/05/16 03:46:09;;;;;;;7.32;3.80;;;;;;;15.99;60.83;101120.75;5101764;28;20131;-89
2022/05/16 03:48:35;;;;;;;10.13;4.00;;;;;;;16.00;59.93;101124.22;5082202;28;20024;-89
2022/05/16 03:51:05;;;;;;;7.18;3.78;;;;;;;16.01;60.86;101123.28;5083270;28;20068;-89
2022/05/16 03:53:31;;;;;;;10.80;4.00;;;;;;;16.02;60.78;101124.97;5100585;28;20034;-89
2022/05/16 03:55:56;;;;;;;10.05;3.92;;;;;;;16.03;60.50;101123.13;5081729;28;20024;-89
2022/05/16 03:58:22;;;;;;;9.63;4.07;;;;;;;16.04;60.40;101117.69;5084477;28;20028;-89
2022/05/16 04:00:47;;;;;;;9.95;4.65;;;;;;;16.05;60.47;101119.38;5105834;28;20031;-89
2022/05/16 04:03:13;;;;;;;7.72;3.80;;;;;;;16.08;59.65;101115.59;5110975;28;20028;-89
2022/05/16 04:05:42;;;;;;;8.02;4.18;;;;;;;16.07;60.50;101112.09;5101381;28;20020;-89
2022/05/16 04:08:08;;;;;;;8.55;4.20;;;;;;;16.09;59.95;101110.13;5105345;28;20157;-89
2022/05/16 04:10:33;;;;;;;10.05;4.25;;;;;;;16.10;60.52;101121.59;5101306;28;20095;-89
2022/05/16 04:12:59;;;;;;;7.78;4.00;;;;;;;16.11;60.00;101118.78;5083082;28;20028;-89
2022/05/16 04:15:25;;;;;;;7.75;4.03;;;;;;;16.11;60.57;101117.94;5102608;28;20024;-89
2022/05/16 04:17:51;;;;;;;9.05;4.60;;;;;;;16.12;60.59;101131.09;5091321;28;20028;-89
2022/05/16 04:20:20;;;;;;;8.82;4.20;;;;;;;16.17;59.79;101128.84;5079757;28;20483;-89
2022/05/16 04:22:47;;;;;;;9.25;4.50;;;;;;;16.19;60.17;101137.50;5086380;28;20023;-89
2022/05/16 04:25:15;;;;;;;8.93;4.65;;;;;;;16.22;59.97;101126.59;5077779;28;20032;-89
2022/05/16 04:27:41;;;;;;;12.10;4.45;;;;;;;16.25;60.56;101126.28;5100872;28;20047;-89
2022/05/16 04:30:07;;;;;;;9.85;4.80;;;;;;;16.29;59.79;101130.34;5100114;28;20549;-89
2022/05/16 04:32:33;;;;;;;14.65;5.20;;;;;;;16.33;59.84;101132.69;5100393;28;20120;-89
2022/05/16 04:34:58;;;;;;;9.52;4.68;;;;;;;16.38;59.75;101127.78;5085460;28;20057;-89
2022/05/16 04:37:25;;;;;;;7.68;4.75;;;;;;;16.40;59.83;101120.50;5084393;28;20116;-89
2022/05/16 04:39:51;;;;;;;9.35;5.10;;;;;;;16.42;59.43;101124.72;5093397;28;20144;-89
2022/05/16 04:45:19;;;;;;;9.85;4.93;;;;;;;16.53;59.25;101129.03;5100170;28;20100;-89
2022/05/16 04:47:46;;;;;;;7.22;4.65;;;;;;;16.55;59.49;101127.06;5074227;28;20032;-89
2022/05/16 04:50:15;;;;;;;8.52;4.50;;;;;;;16.59;59.24;101125.78;5074148;28;20024;-89
2022/05/16 04:52:40;;;;;;;10.45;4.75;;;;;;;16.63;59.32;101128.97;5091692;28;20457;-89
2022/05/16 04:55:07;;;;;;;10.32;4.53;;;;;;;16.69;59.06;101133.75;5085794;28;20257;-88
2022/05/16 04:57:33;;;;;;;10.20;4.78;;;;;;;16.73;59.27;101146.59;5082896;28;20028;-89
2022/05/16 04:59:58;;;;;;;15.43;5.00;;;;;;;16.77;59.66;101147.97;5097782;28;20039;-90
2022/05/16 05:02:23;;;;;;;11.07;4.20;;;;;;;16.83;59.56;101147.41;5100582;28;20403;-92
2022/05/16 05:04:49;;;;;;;10.98;4.78;;;;;;;16.90;59.32;101135.19;5088765;28;20114;-89
2022/05/16 05:07:15;;;;;;;10.73;4.68;;;;;;;16.97;58.58;101126.63;5121568;28;20042;-89
2022/05/16 05:15:11;;;;;;;9.15;4.55;;;;;;;17.22;58.51;101139.22;5113225;28;20038;-90
2022/05/16 05:17:37;;;;;;;9.07;4.38;;;;;;;17.33;58.01;101138.19;5105618;28;20035;-90
2022/05/16 05:20:04;;;;;;;9.23;4.53;;;;;;;17.42;57.86;101138.09;5101620;28;20099;-90
2022/05/16 05:22:29;;;;;;;7.68;4.50;;;;;;;17.50;57.76;101134.69;5081411;28;20104;-90
2022/05/16 05:24:54;;;;;;;10.40;4.07;;;;;;;17.56;57.31;101131.41;5085120;28;20027;-91
2022/05/16 05:27:20;;;;;;;10.68;4.35;;;;;;;17.64;57.24;101133.34;5103726;28;20022;-90
2022/05/16 05:29:48;;;;;;;8.43;4.10;;;;;;;17.71;57.18;101132.59;5082689;28;20030;-90
2022/05/16 05:32:14;;;;;;;9.45;4.28;;;;;;;17.77;56.57;101128.50;5103227;28;20104;-91
2022/05/16 05:34:42;;;;;;;11.05;4.65;;;;;;;17.86;57.01;101130.22;5103277;28;20051;-91
2022/05/16 05:37:08;;;;;;;8.45;3.90;;;;;;;17.90;57.19;101136.91;5105261;28;20510;-91
2022/05/16 05:39:38;;;;;;;8.27;3.97;;;;;;;17.99;57.13;101143.97;5083197;28;20055;-91
2022/05/16 05:42:06;;;;;;;8.60;3.92;;;;;;;18.08;57.01;101140.41;5080967;28;20027;-91
2022/05/16 05:44:32;;;;;;;8.38;3.60;;;;;;;18.17;56.72;101143.97;5088902;28;20051;-91
2022/05/16 05:47:00;;;;;;;11.73;4.40;;;;;;;18.27;56.59;101157.19;5094291;28;20038;-91
2022/05/16 05:49:25;;;;;;;9.90;4.10;;;;;;;18.33;56.68;101153.88;5099466;28;20081;-91
2022/05/16 05:51:50;;;;;;;6.72;3.75;;;;;;;18.35;56.70;101149.25;5085047;28;20439;-91
2022/05/16 05:54:19;;;;;;;7.40;3.80;;;;;;;18.41;56.20;101159.25;5100311;28;20026;-91
2022/05/16 05:56:44;;;;;;;8.25;3.85;;;;;;;18.46;56.16;101159.66;5085528;28;20064;-91
2022/05/16 05:59:09;;;;;;;9.02;3.67;;;;;;;18.47;56.74;101161.31;5101561;28;20426;-91
2022/05/16 06:01:34;;;;;;;8.98;4.00;;;;;;;18.53;56.15;101163.34;5102076;28;20032;-91
2022/05/16 06:04:00;;;;;;;7.53;4.10;;;;;;;18.57;56.04;101167.38;5101361;28;20106;-91
2022/05/16 06:06:25;;;;;;;8.10;4.18;;;;;;;18.64;55.93;101167.63;5103499;28;20047;-91
2022/05/16 06:08:51;;;;;;;11.82;4.03;;;;;;;18.71;55.90;101166.81;5084769;28;20031;-91
2022/05/16 06:11:20;;;;;;;10.23;4.32;;;;;;;18.77;55.20;101170.66;5100574;28;20024;-92
2022/05/16 06:13:45;;;;;;;8.93;4.15;;;;;;;18.82;56.30;101178.22;5104642;28;20024;-90
2022/05/16 06:16:10;;;;;;;10.45;3.90;;;;;;;18.83;55.66;101177.22;5098272;28;20027;-89
2022/05/16 06:18:42;;;;;;;12.15;4.18;;;;;;;18.84;55.63;101182.41;5080024;28;20016;-92
2022/05/16 06:21:07;;;;;;;11.13;3.53;;;;;;;18.95;55.50;101183.94;5080203;28;20534;-91
2022/05/16 06:23:33;;;;;;;9.38;3.60;;;;;;;19.03;55.49;101183.97;5081163;28;20016;-91
2022/05/16 06:25:59;;;;;;;9.40;4.75;;;;;;;19.09;56.04;101186.84;5084521;28;20404;-91
2022/05/16 06:28:27;;;;;;;9.02;3.60;;;;;;;19.12;56.12;101199.00;5092171;28;20059;-91
2022/05/16 06:30:53;;;;;;;9.55;3.45;;;;;;;19.17;55.80;101195.84;5101570;28;20023;-89
2022/05/16 06:33:20;;;;;;;7.30;3.55;;;;;;;19.21;55.85;101187.41;5105476;28;20020;-89
2022/05/16 06:35:47;;;;;;;7.90;3.60;;;;;;;19.21;55.64;101190.06;5096241;28;20012;-89
2022/05/16 06:38:20;;;;;;;8.30;3.80;;;;;;;19.20;55.96;101196.38;5082316;28;20028;-89
2022/05/16 06:40:46;;;;;;;18.90;4.57;;;;;;;19.22;55.68;101189.06;5083892;28;20076;-91
2022/05/16 06:43:12;;;;;;;14.10;4.50;;;;;;;19.25;55.86;101194.09;5094955;28;20039;-91
2022/05/16 06:45:38;;;;;;;14.02;4.90;;;;;;;19.27;56.02;101197.44;5101853;28;20048;-91
2022/05/16 06:48:07;;;;;;;10.10;4.18;;;;;;;19.30;55.59;101197.09;5101212;28;20126;-91
2022/05/16 06:50:33;;;;;;;11.60;3.95;;;;;;;19.34;55.75;101200.28;5096073;28;20072;-92
2022/05/16 06:52:59;;;;;;;12.27;4.45;;;;;;;19.36;55.93;101196.44;5084044;28;20300;-92
2022/05/16 06:55:25;;;;;;;9.60;3.60;;;;;;;19.41;55.99;101204.81;5092614;28;20024;-91
2022/05/16 06:57:51;;;;;;;16.77;4.20;;;;;;;19.45;55.69;101194.63;5101568;28;20020;-92
2022/05/16 07:00:17;;;;;;;15.05;4.47;;;;;;;19.46;56.38;101206.97;5082449;28;20396;-93
2022/05/16 07:02:43;;;;;;;13.88;3.80;;;;;;;19.55;56.00;101202.53;5104526;28;20038;-91
2022/05/16 07:05:09;;;;;;;9.07;3.38;;;;;;;19.62;56.70;101200.91;5078384;28;20032;-92
2022/05/16 07:07:35;;;;;;;11.45;3.80;;;;;;;19.69;56.06;101197.41;5103822;28;20070;-91
2022/05/16 07:10:01;;;;;;;10.02;3.88;;;;;;;19.78;56.11;101211.59;5083899;28;20122;-92
2022/05/16 07:12:26;;;;;;;12.10;3.80;;;;;;;19.89;55.79;101208.59;5083386;28;20023;-92
2022/05/16 07:14:52;;;;;;;16.52;3.72;;;;;;;19.98;55.96;101206.78;5101523;28;20024;-89
2022/05/16 07:17:17;;;;;;;15.20;3.63;;;;;;;20.10;55.30;101207.31;5083940;28;20031;-92
2022/05/16 07:19:43;;;;;;;14.18;3.80;;;;;;;20.28;56.38;101213.31;5103979;28;20027;-90
2022/05/16 07:22:11;;;;;;;11.55;3.88;;;;;;;20.45;56.39;101224.88;5105767;28;20476;-91
2022/05/16 07:24:38;;;;;;;10.40;3.58;;;;;;;20.64;54.96;101213.81;5103934;28;20070;-90
2022/05/16 07:29:48;;;;;;;10.43;3.80;;;;;;;20.96;55.17;101219.06;5102687;28;20089;-90
2022/05/16 07:32:13;;;;;;;19.88;3.50;;;;;;;21.13;55.19;101214.50;5066614;28;20056;-90
2022/05/16 07:34:42;;;;;;;16.48;3.65;;;;;;;21.31;53.91;101216.13;5097697;28;20106;-90
2022/05/16 07:37:08;;;;;;;16.35;3.72;;;;;;;21.44;54.24;101211.88;5109143;28;20038;-90
2022/05/16 07:39:38;;;;;;;7.05;3.22;;;;;;;21.56;53.15;101209.63;5071945;28;20415;-89
2022/05/16 07:42:08;;;;;;;12.07;3.40;;;;;;;21.69;53.55;101209.06;5090456;28;20024;-90
2022/05/16 07:44:38;;;;;;;12.63;2.90;;;;;;;21.79;53.42;101215.03;5104535;28;20123;-90
2022/05/16 07:47:04;;;;;;;13.98;3.50;;;;;;;21.81;53.08;101224.56;5084873;28;20130;-90
2022/05/16 07:49:30;;;;;;;13.13;3.28;;;;;;;21.86;53.10;101216.81;5061546;28;20123;-90
2022/05/16 07:51:55;;;;;;;10.95;3.33;;;;;;;21.90;53.05;101223.47;5101224;28;20450;-90
2022/05/16 07:54:21;;;;;;;10.18;3.03;;;;;;;21.92;53.46;101235.88;5101603;28;20040;-90
2022/05/16 07:56:47;;;;;;;9.07;2.80;;;;;;;21.95;53.18;101224.78;5100838;28;20022;-90
2022/05/16 07:59:12;;;;;;;16.23;3.40;;;;;;;21.96;53.38;101237.19;5090233;28;20023;-90
2022/05/16 08:01:38;;;;;;;8.05;2.70;;;;;;;22.22;52.99;101224.28;5102182;28;20076;-89
2022/05/16 08:04:06;;;;;;;8.68;2.83;;;;;;;22.77;52.02;101226.59;5100040;28;20051;-89
2022/05/16 08:06:32;;;;;;;7.97;3.00;;;;;;;23.17;50.43;101231.72;5103226;28;20054;-89
2022/05/16 08:11:41;;;;;;;7.72;3.20;;;;;;;23.63;49.13;101221.63;5111913;28;20127;-90
2022/05/16 08:14:07;;;;;;;11.55;3.30;;;;;;;23.94;49.28;101224.00;5103344;28;20111;-90
2022/05/16 08:16:32;;;;;;;10.98;2.75;;;;;;;24.19;47.60;101227.97;5081351;28;20048;-91
2022/05/16 08:18:58;;;;;;;7.93;2.55;;;;;;;24.66;48.10;101224.66;5107022;28;20460;-91
2022/05/16 08:21:23;;;;;;;6.35;2.60;;;;;;;25.12;46.67;101223.28;5107115;28;20076;-91
2022/05/16 08:23:49;;;;;;;12.52;2.92;;;;;;;25.47;44.66;101232.97;5100090;28;20795;-91
2022/05/16 08:26:14;;;;;;;5.93;2.60;;;;;;;25.84;44.50;101236.22;5099793;28;20372;-91
2022/05/16 08:28:40;;;;;;;9.43;2.60;;;;;;;26.06;43.42;101235.03;5089584;28;20467;-90
2022/05/16 08:31:06;;;;;;;4.05;2.22;;;;;;;26.33;43.94;101246.69;5081738;28;20085;-91
2022/05/16 08:33:37;;;;;;;4.45;2.20;;;;;;;26.48;42.43;101228.44;5102816;28;20463;-90
2022/05/16 08:41:50;;;;;;;5.03;2.38;;;;;;;27.15;42.52;101231.84;5099550;28;20509;-90
2022/05/16 08:44:45;;;;;;;5.93;2.40;;;;;;;27.28;42.37;101225.59;5104411;28;20016;-94
2022/05/16 08:47:20;;;;;;;5.90;2.22;;;;;;;27.53;41.68;101223.78;5081618;28;20036;-91
2022/05/16 08:49:57;;;;;;;4.90;2.10;;;;;;;27.68;41.81;101227.09;5084486;28;20031;-92
2022/05/16 08:52:35;;;;;;;5.65;2.25;;;;;;;27.85;40.88;101224.69;5081160;28;20027;-92
2022/05/16 08:55:07;;;;;;;3.55;2.03;;;;;;;27.92;40.37;101225.47;5099855;28;20028;-92
2022/05/16 08:57:38;;;;;;;5.30;2.30;;;;;;;28.24;39.90;101222.78;5085258;28;20074;-91
2022/05/16 09:00:23;;;;;;;3.78;2.10;;;;;;;28.31;40.84;101227.09;5082337;28;20024;-90
2022/05/16 09:02:50;;;;;;;7.55;2.15;;;;;;;28.48;38.85;101231.97;5085796;28;20027;-91
2022/05/16 09:05:22;;;;;;;7.30;2.20;;;;;;;28.79;39.15;101222.88;5110173;28;20055;-89
2022/05/16 09:07:53;;;;;;;6.67;2.27;;;;;;;28.97;38.32;101225.66;5082539;28;20039;-91
2022/05/16 09:10:24;;;;;;;3.83;1.95;;;;;;;29.23;37.82;101227.25;5099705;28;20024;-91
2022/05/16 09:13:27;;;;;;;4.00;2.10;;;;;;;29.11;38.65;101224.44;5086755;28;20110;-91
2022/05/16 09:16:28;;;;;;;6.50;2.50;;;;;;;28.91;38.71;101231.97;5074933;28;20020;-91
2022/05/16 09:19:30;;;;;;;4.63;2.28;;;;;;;28.88;38.23;101230.53;5105389;28;20028;-91
2022/05/16 09:21:58;;;;;;;10.27;2.22;;;;;;;28.89;38.39;101228.66;5086396;28;20036;-91
2022/05/16 09:24:37;;;;;;;5.15;2.03;;;;;;;28.98;39.31;101230.84;5093085;28;20028;-91
2022/05/16 09:28:34;;;;;;;6.90;2.15;;;;;;;29.20;38.52;101231.19;5085000;28;20024;-91
2022/05/16 09:30:05;;;;;;;9.70;2.50;;;;;;;29.30;37.85;101231.50;5098276;28;20038;-91
2022/05/16 09:32:35;;;;;;;6.18;2.40;;;;;;;29.41;38.22;101229.09;5077715;28;20024;-91
2022/05/16 09:35:01;;;;;;;9.60;2.60;;;;;;;29.57;36.61;101236.59;5096064;28;20107;-89
2022/05/16 09:37:26;;;;;;;4.30;2.30;;;;;;;29.58;36.81;101232.84;5106092;28;20085;-88
2022/05/16 09:39:53;;;;;;;5.35;2.10;;;;;;;29.81;37.71;101238.38;5100984;28;20031;-90
2022/05/16 09:42:25;;;;;;;8.15;2.47;;;;;;;29.78;37.47;101244.25;5083826;28;20035;-90
2022/05/16 09:44:54;;;;;;;6.53;2.70;;;;;;;29.85;37.33;101255.00;5097815;28;20046;-90
2022/05/16 09:47:36;;;;;;;6.43;2.50;;;;;;;29.96;37.27;101246.06;5097875;28;20126;-91
2022/05/16 09:50:16;;;;;;;6.20;2.63;;;;;;;29.79;37.43;101251.34;5101985;28;20132;-90
2022/05/16 09:52:46;;;;;;;6.57;2.42;;;;;;;29.93;37.81;101250.06;5099937;28;20035;-89
2022/05/16 09:55:27;;;;;;;4.50;2.33;;;;;;;30.04;36.55;101272.09;5097304;28;20030;-89
2022/05/16 09:57:59;;;;;;;5.80;2.45;;;;;;;30.00;36.43;101268.97;5100016;28;20028;-90
2022/05/16 10:00:32;;;;;;;6.95;2.97;;;;;;;29.93;36.63;101279.94;5102971;28;20031;-90
2022/05/16 10:03:19;;;;;;;11.35;3.08;;;;;;;29.84;37.52;101284.03;5096557;28;20042;-89
2022/05/16 10:05:51;;;;;;;9.18;3.13;;;;;;;29.70;37.44;101285.28;5081023;28;20480;-89
2022/05/16 10:08:39;;;;;;;6.07;3.33;;;;;;;29.57;37.85;101282.72;5099285;28;20027;-90
2022/05/16 10:11:08;;;;;;;7.63;2.97;;;;;;;29.10;37.94;101287.00;5099106;28;20515;-90
2022/05/16 10:13:34;;;;;;;9.65;3.05;;;;;;;28.82;38.05;101303.69;5079815;28;20106;-91
2022/05/16 10:16:02;;;;;;;4.30;2.47;;;;;;;28.34;39.20;101298.91;5094979;28;20024;-90
2022/05/16 10:18:31;;;;;;;7.45;3.42;;;;;;;27.83;40.31;101310.63;5083886;28;20053;-91
2022/05/16 10:21:02;;;;;;;9.68;2.63;;;;;;;27.44;42.08;101323.25;5097290;28;20028;-90
2022/05/16 10:23:35;;;;;;;8.45;3.13;;;;;;;27.02;43.57;101324.56;5076422;28;20096;-92
2022/05/16 10:26:07;;;;;;;13.02;3.75;;;;;;;26.49;46.40;101348.88;5099269;28;20027;-90
2022/05/16 10:28:37;;;;;;;10.18;3.30;;;;;;;25.98;49.19;101361.13;5093079;28;20096;-86
2022/05/16 10:33:59;;;;;;;8.43;3.10;;;;;;;25.07;52.80;101369.31;5092218;28;20078;-88
2022/05/16 10:36:28;;;;;;;9.23;3.15;;;;;;;24.88;55.76;101378.03;5090689;28;20012;-89
2022/05/16 10:39:06;;;;;;;7.28;3.72;;;;;;;24.74;56.27;101377.06;5100354;28;20060;-90
2022/05/16 10:41:43;;;;;;;9.40;3.83;;;;;;;24.73;58.91;101385.34;5082315;28;20094;-90
2022/05/16 10:44:25;;;;;;;10.15;3.72;;;;;;;24.75;56.68;101378.75;5105886;28;20058;-89
2022/05/16 10:47:06;;;;;;;8.02;3.92;;;;;;;25.05;58.18;101382.13;5077590;28;20028;-89
2022/05/16 10:49:41;;;;;;;8.65;3.72;;;;;;;25.19;57.12;101380.38;5097448;28;20043;-89
2022/05/16 10:52:28;;;;;;;9.02;4.18;;;;;;;25.40;54.89;101382.19;5084260;28;20476;-88
2022/05/16 10:54:53;;;;;;;7.13;3.75;;;;;;;25.48;55.28;101385.53;5090465;28;20074;-88
2022/05/16 10:57:22;;;;;;;10.57;4.30;;;;;;;25.57;54.22;101386.22;5103270;28;20114;-89
2022/05/16 11:00:14;;;;;;;11.32;4.00;;;;;;;25.61;52.36;101392.88;5107440;28;20499;-89
2022/05/16 11:03:04;;;;;;;8.00;4.30;;;;;;;25.61;52.58;101396.41;5104451;28;20023;-90
2022/05/16 11:05:44;;;;;;;9.20;3.80;;;;;;;25.56;51.40;101395.31;5105156;28;20030;-90
2022/05/16 11:08:29;;;;;;;9.52;3.92;;;;;;;25.44;52.23;101397.75;5080732;28;20467;-89
2022/05/16 11:11:00;;;;;;;8.75;3.80;;;;;;;25.15;51.67;101408.72;5089764;28;20028;-90
2022/05/16 11:13:54;;;;;;;8.63;4.03;;;;;;;24.92;51.67;101407.06;5089854;28;20118;-89
2022/05/16 11:16:32;;;;;;;9.93;4.63;;;;;;;24.62;52.38;101408.22;5077154;28;20035;-90
2022/05/16 11:19:26;;;;;;;10.05;4.50;;;;;;;24.49;52.97;101405.41;5107065;28;21045;-92
2022/05/16 11:22:13;;;;;;;13.23;4.55;;;;;;;24.46;53.77;101406.63;5088815;28;20028;-88
2022/05/16 11:24:58;;;;;;;8.88;5.00;;;;;;;24.44;54.08;101406.00;5100414;28;20024;-90
2022/05/16 11:27:42;;;;;;;9.73;4.90;;;;;;;24.41;53.97;101406.34;5094620;28;20623;-88
2022/05/16 11:30:37;;;;;;;13.00;5.10;;;;;;;24.24;55.00;101408.41;5083659;28;20027;-90
2022/05/16 11:33:43;;;;;;;10.88;5.10;;;;;;;24.09;56.15;101410.31;5103882;28;20032;-89
2022/05/16 11:36:49;;;;;;;10.30;5.80;;;;;;;24.09;56.95;101410.31;5101731;28;20023;-92
2022/05/16 11:39:37;;;;;;;13.55;5.35;;;;;;;24.10;57.06;101411.97;5104166;28;20031;-91
2022/05/16 11:42:19;;;;;;;11.63;6.07;;;;;;;24.10;56.45;101411.97;5101180;28;20023;-91
2022/05/16 11:45:03;;;;;;;10.35;5.55;;;;;;;24.12;54.38;101426.06;5104076;28;20048;-91
2022/05/16 11:47:44;;;;;;;11.65;5.28;;;;;;;23.96;55.05;101428.94;5088569;28;20507;-90
2022/05/16 11:50:24;;;;;;;19.17;5.70;;;;;;;23.87;55.26;101427.38;5102919;28;20031;-93
2022/05/16 11:53:07;;;;;;;12.88;5.10;;;;;;;23.77;55.58;101424.13;5082244;28;20023;-94
2022/05/16 12:01:26;;;;;;;14.32;7.85;;;;;;;23.27;58.48;101453.34;5109947;28;20035;-91
2022/05/16 12:04:04;;;;;;;13.88;8.80;;;;;;;23.12;60.27;101449.75;5076110;28;20050;-92
2022/05/16 12:06:35;;;;;;;16.27;9.73;;;;;;;22.91;61.42;101454.97;5096149;28;20471;-91
2022/05/16 12:09:15;;;;;;;12.85;10.10;;;;;;;22.74;61.40;101456.88;5088215;28;20031;-89
2022/05/16 12:11:55;;;;;;;14.48;9.70;;;;;;;22.72;61.85;101466.97;5081875;28;20024;-90